createdAt,value
2018-12-19T00:02:24.930Z,58.63
2018-12-19T00:04:57.470Z,55.27
2018-12-19T00:07:30.176Z,60.93
2018-12-19T00:10:00.635Z,52.40
2018-12-19T00:12:32.450Z,53.90
2018-12-19T00:15:03.764Z,52.83
2018-12-19T00:17:36.402Z,53.20
2018-12-19T00:20:08.268Z,60.13
2018-12-19T00:22:38.838Z,57.83
2018-12-19T00:25:09.725Z,68.33
2018-12-19T00:27:42.423Z,59.47
2018-12-19T00:30:14.979Z,66.70
2018-12-19T00:32:47.611Z,61.30
2018-12-19T00:35:21.020Z,61.00
2018-12-19T00:37:51.519Z,62.40
2018-12-19T00:40:23.215Z,63.43
2018-12-19T00:42:53.837Z,58.93
2018-12-19T00:45:24.803Z,57.70
2018-12-19T00:47:55.330Z,65.13
2018-12-19T00:50:27.814Z,66.13
2018-12-19T00:52:58.364Z,64.63
2018-12-19T00:55:28.814Z,57.33
2018-12-19T00:58:00.286Z,64.37
2018-12-19T01:00:30.986Z,56.03
2018-12-19T01:03:01.588Z,64.70
2018-12-19T01:05:32.051Z,53.13
2018-12-19T01:08:02.744Z,53.63
2018-12-19T01:10:33.337Z,62.80
2018-12-19T01:13:03.846Z,63.50
2018-12-19T01:15:34.336Z,67.37
2018-12-19T01:18:05.028Z,56.03
2018-12-19T01:20:35.651Z,57.97
2018-12-19T01:23:06.247Z,57.20
2018-12-19T01:25:36.712Z,56.80
2018-12-19T01:28:07.261Z,53.23
2018-12-19T01:30:38.860Z,54.80
2018-12-19T01:33:09.392Z,57.23
2018-12-19T01:35:40.589Z,60.00
2018-12-19T01:38:11.320Z,57.50
2018-12-19T01:40:41.934Z,66.40
2018-12-19T01:45:55.106Z,61.77
2018-12-19T01:48:25.910Z,68.70
2018-12-19T01:50:56.364Z,64.10
2018-12-19T01:53:26.934Z,63.03
2018-12-19T01:55:57.548Z,66.63
2018-12-19T01:58:28.084Z,69.63
2018-12-19T02:00:58.662Z,65.07
2018-12-19T02:03:30.498Z,69.47
2018-12-19T02:06:01.078Z,64.17
2018-12-19T02:08:31.580Z,68.97
2018-12-19T02:11:02.121Z,65.20
2018-12-19T02:13:32.784Z,69.90
2018-12-19T02:16:03.232Z,68.50
2018-12-19T02:18:33.638Z,74.03
2018-12-19T02:21:04.062Z,75.87
2018-12-19T02:23:34.952Z,65.83
2018-12-19T02:26:05.636Z,70.27
2018-12-19T02:28:36.138Z,75.30
2018-12-19T02:31:06.824Z,70.23
2018-12-19T02:33:37.312Z,96.17
2018-12-19T02:36:07.882Z,73.67
2018-12-19T02:38:38.321Z,73.07
2018-12-19T02:41:08.967Z,78.27
2018-12-19T02:43:39.573Z,73.60
2018-12-19T02:46:10.119Z,76.90
2018-12-19T02:48:40.743Z,79.47
2018-12-19T02:51:11.355Z,71.87
2018-12-19T02:53:41.843Z,76.67
2018-12-19T02:56:12.313Z,62.47
2018-12-19T02:58:42.919Z,65.37
2018-12-19T03:01:13.615Z,70.67
2018-12-19T03:03:44.644Z,72.70
2018-12-19T03:06:15.432Z,71.50
2018-12-19T03:08:46.200Z,62.13
2018-12-19T03:11:17.072Z,61.60
2018-12-19T03:13:51.638Z,64.30
2018-12-19T03:16:22.935Z,67.67
2018-12-19T03:18:54.444Z,75.63
2018-12-19T03:21:25.130Z,72.40
2018-12-19T03:23:55.649Z,64.50
2018-12-19T03:26:26.405Z,59.67
2018-12-19T03:28:57.025Z,72.17
2018-12-19T03:31:27.661Z,74.00
2018-12-19T03:33:58.606Z,66.10
2018-12-19T03:36:29.378Z,65.47
2018-12-19T03:39:00.135Z,67.93
2018-12-19T03:41:31.019Z,67.13
2018-12-19T03:44:01.906Z,66.87
2018-12-19T03:46:32.735Z,70.50
2018-12-19T03:49:03.359Z,76.93
2018-12-19T03:51:34.098Z,76.23
2018-12-19T03:54:04.861Z,80.53
2018-12-19T03:56:35.394Z,75.17
2018-12-19T03:59:06.052Z,76.50
2018-12-19T04:01:37.391Z,74.77
2018-12-19T04:04:08.711Z,73.20
2018-12-19T04:06:40.633Z,79.50
2018-12-19T04:09:12.098Z,77.63
2018-12-19T04:11:43.553Z,82.00
2018-12-19T04:14:15.709Z,78.23
2018-12-19T04:16:47.280Z,72.50
2018-12-19T04:19:18.891Z,77.80
2018-12-19T04:21:52.710Z,85.67
2018-12-19T04:24:24.430Z,84.03
2018-12-19T04:26:56.399Z,83.07
2018-12-19T04:29:27.792Z,77.63
2018-12-19T04:32:00.830Z,74.90
2018-12-19T04:34:32.190Z,90.30
2018-12-19T04:37:03.581Z,91.57
2018-12-19T04:39:36.372Z,76.50
2018-12-19T04:42:08.190Z,85.53
2018-12-19T04:44:39.530Z,88.43
2018-12-19T04:47:10.851Z,76.10
2018-12-19T04:49:42.090Z,91.07
2018-12-19T04:52:13.680Z,80.33
2018-12-19T04:54:45.310Z,78.07
2018-12-19T04:57:17.060Z,87.00
2018-12-19T04:59:48.552Z,71.67
2018-12-19T05:02:20.102Z,75.03
2018-12-19T05:04:51.201Z,70.57
2018-12-19T05:07:23.040Z,80.70
2018-12-19T05:09:54.472Z,71.37
2018-12-19T05:12:26.920Z,83.57
2018-12-19T05:14:58.182Z,71.67
2018-12-19T05:17:29.490Z,76.97
2018-12-19T05:20:01.066Z,80.87
2018-12-19T05:22:32.821Z,72.83
2018-12-19T05:25:04.420Z,79.23
2018-12-19T05:27:35.720Z,75.03
2018-12-19T05:30:07.959Z,81.97
2018-12-19T05:32:39.381Z,70.60
2018-12-19T05:35:10.845Z,71.43
2018-12-19T05:37:42.600Z,78.17
2018-12-19T05:40:18.933Z,78.30
2018-12-19T05:42:47.731Z,84.00
2018-12-19T05:45:19.111Z,69.13
2018-12-19T05:47:53.220Z,68.63
2018-12-19T05:50:33.671Z,78.60
2018-12-19T05:53:05.063Z,77.77
2018-12-19T05:55:36.352Z,73.07
2018-12-19T05:58:08.221Z,75.23
2018-12-19T06:00:39.871Z,76.17
2018-12-19T06:03:13.600Z,63.07
2018-12-19T06:05:45.170Z,77.00
2018-12-19T06:08:16.743Z,73.77
2018-12-19T06:10:48.072Z,79.27
2018-12-19T06:13:19.372Z,71.57
2018-12-19T06:15:51.110Z,81.37
2018-12-19T06:18:22.950Z,61.77
2018-12-19T06:20:54.590Z,84.30
2018-12-19T06:23:26.540Z,83.90
2018-12-19T06:25:59.070Z,67.07
2018-12-19T06:28:30.763Z,77.00
2018-12-19T06:33:45.920Z,81.33
2018-12-19T06:36:17.480Z,71.90
2018-12-19T06:38:49.440Z,67.67
2018-12-19T06:41:21.170Z,77.23
2018-12-19T06:43:52.940Z,77.87
2018-12-19T06:46:24.570Z,83.97
2018-12-19T06:48:56.211Z,72.80
2018-12-19T06:51:27.885Z,75.17
2018-12-19T06:53:59.510Z,74.10
2018-12-19T06:56:31.010Z,82.93
2018-12-19T06:59:02.800Z,85.40
2018-12-19T07:01:34.770Z,71.27
2018-12-19T07:04:06.189Z,80.37
2018-12-19T07:06:38.410Z,70.93
2018-12-19T07:09:11.182Z,68.13
2018-12-19T07:11:42.839Z,75.03
2018-12-19T07:14:14.565Z,74.87
2018-12-19T07:16:46.082Z,75.20
2018-12-19T07:19:17.955Z,68.77
2018-12-19T07:21:50.370Z,70.57
2018-12-19T07:24:22.031Z,79.57
2018-12-19T07:26:54.260Z,58.40
2018-12-19T07:29:25.690Z,70.37
2018-12-19T07:31:57.320Z,77.77
2018-12-19T07:34:29.000Z,75.73
2018-12-19T07:37:00.590Z,83.93
2018-12-19T07:39:32.360Z,79.23
2018-12-19T07:42:03.950Z,90.27
2018-12-19T07:44:36.070Z,77.13
2018-12-19T07:47:07.681Z,73.50
2018-12-19T07:49:39.481Z,78.53
2018-12-19T07:52:11.630Z,72.13
2018-12-19T07:54:43.150Z,69.70
2018-12-19T07:57:14.880Z,78.87
2018-12-19T07:59:46.730Z,76.87
2018-12-19T08:02:18.510Z,60.27
2018-12-19T08:04:50.920Z,82.40
2018-12-19T08:07:22.491Z,80.40
2018-12-19T08:09:54.120Z,72.43
2018-12-19T08:12:27.023Z,80.57
2018-12-19T08:15:03.351Z,74.57
2018-12-19T08:17:49.540Z,79.43
2018-12-19T08:20:41.350Z,77.23
2018-12-19T08:23:18.090Z,56.87
2018-12-19T08:25:49.720Z,60.10
2018-12-19T08:28:21.520Z,59.93
2018-12-19T08:30:53.440Z,67.57
2018-12-19T08:33:25.050Z,61.07
2018-12-19T08:35:56.750Z,71.70
2018-12-19T08:38:28.623Z,68.40
2018-12-19T08:41:00.320Z,51.53
2018-12-19T08:43:31.990Z,49.80
2018-12-19T08:46:03.570Z,54.83
2018-12-19T08:48:35.449Z,53.43
2018-12-19T08:51:07.290Z,51.77
2018-12-19T08:53:40.310Z,65.37
2018-12-19T08:56:12.170Z,55.77
2018-12-19T08:58:43.680Z,56.93
2018-12-19T09:01:15.593Z,61.23
2018-12-19T09:03:47.111Z,64.23
2018-12-19T09:06:18.910Z,50.07
2018-12-19T09:08:50.430Z,53.53
2018-12-19T09:11:21.960Z,54.97
2018-12-19T09:13:54.610Z,41.57
2018-12-19T09:16:27.331Z,46.57
2018-12-19T09:18:59.190Z,43.27
2018-12-19T09:21:31.060Z,42.47
2018-12-19T09:24:02.830Z,69.10
2018-12-19T09:26:34.232Z,102.83
2018-12-19T09:29:05.721Z,146.27
2018-12-19T09:31:37.390Z,106.30
2018-12-19T09:34:09.759Z,95.23
2018-12-19T09:36:41.379Z,60.87
2018-12-19T09:39:13.030Z,63.77
2018-12-19T09:41:45.131Z,58.80
2018-12-19T09:44:16.859Z,42.17
2018-12-19T09:46:48.449Z,44.07
2018-12-19T09:49:20.979Z,45.07
2018-12-19T09:51:53.011Z,39.17
2018-12-19T09:54:24.800Z,39.17
2018-12-19T09:56:58.029Z,38.37
2018-12-19T09:59:29.521Z,56.67
2018-12-19T10:02:01.549Z,40.73
2018-12-19T10:04:33.173Z,38.23
2018-12-19T10:07:04.749Z,36.87
2018-12-19T10:09:36.499Z,33.90
2018-12-19T10:12:08.297Z,27.33
2018-12-19T10:14:40.539Z,35.30
2018-12-19T10:17:12.059Z,29.63
2018-12-19T10:19:44.170Z,31.90
2018-12-19T10:22:19.390Z,39.90
2018-12-19T10:24:55.840Z,38.53
2018-12-19T10:27:27.071Z,30.37
2018-12-19T10:29:58.320Z,31.37
2018-12-19T10:32:33.902Z,31.83
2018-12-19T10:35:05.949Z,33.40
2018-12-19T10:37:39.039Z,35.73
2018-12-19T10:40:12.949Z,39.30
2018-12-19T10:42:44.470Z,31.80
2018-12-19T10:45:16.282Z,33.47
2018-12-19T10:47:48.149Z,34.20
2018-12-19T10:50:19.870Z,35.83
2018-12-19T10:52:53.569Z,40.27
2018-12-19T10:55:26.942Z,49.33
2018-12-19T10:57:58.209Z,50.03
2018-12-19T11:00:35.827Z,49.13
2018-12-19T11:03:07.219Z,50.93
2018-12-19T11:05:39.169Z,54.73
2018-12-19T11:08:10.782Z,60.73
2018-12-19T11:10:42.679Z,63.97
2018-12-19T11:13:15.460Z,59.87
2018-12-19T11:15:48.759Z,63.47
2018-12-19T11:18:20.670Z,64.87
2018-12-19T11:20:52.650Z,64.77
2018-12-19T11:23:24.610Z,56.03
2018-12-19T11:25:56.250Z,51.50
2018-12-19T11:28:28.300Z,83.47
2018-12-19T11:31:00.163Z,63.50
2018-12-19T11:33:31.540Z,36.13
2018-12-19T11:36:03.701Z,39.30
2018-12-19T11:38:35.270Z,35.47
2018-12-19T11:41:07.020Z,39.03
2018-12-19T11:43:38.899Z,32.47
2018-12-19T11:46:10.460Z,40.50
2018-12-19T11:48:42.049Z,34.30
2018-12-19T11:51:13.559Z,28.90
2018-12-19T11:53:45.120Z,38.33
2018-12-19T11:56:17.209Z,32.40
2018-12-19T11:58:49.401Z,40.17
2018-12-19T12:01:21.420Z,34.93
2018-12-19T12:03:54.680Z,40.47
2018-12-19T12:06:28.690Z,39.70
2018-12-19T12:09:00.369Z,37.77
2018-12-19T12:11:31.779Z,32.87
2018-12-19T12:14:03.460Z,40.17
2018-12-19T12:16:35.350Z,41.77
2018-12-19T12:19:07.693Z,36.90
2018-12-19T12:21:40.939Z,33.73
2018-12-19T12:24:12.489Z,34.07
2018-12-19T12:26:46.939Z,39.00
2018-12-19T12:29:18.580Z,34.97
2018-12-19T12:31:50.389Z,36.23
2018-12-19T12:34:23.159Z,34.03
2018-12-19T12:36:55.240Z,26.10
2018-12-19T12:39:26.690Z,35.83
2018-12-19T12:42:00.137Z,36.67
2018-12-19T12:44:34.220Z,33.10
2018-12-19T12:47:05.670Z,35.93
2018-12-19T12:49:38.490Z,33.57
2018-12-19T12:52:10.359Z,41.67
2018-12-19T12:54:42.070Z,35.83
2018-12-19T12:57:16.620Z,35.23
2018-12-19T13:02:33.679Z,29.43
2018-12-19T13:05:05.549Z,32.10
2018-12-19T13:07:37.229Z,38.50
2018-12-19T13:10:10.209Z,32.97
2018-12-19T13:12:41.670Z,36.20
2018-12-19T13:15:15.329Z,58.73
2018-12-19T13:17:49.999Z,76.53
2018-12-19T13:20:22.309Z,72.17
2018-12-19T13:22:54.021Z,80.33
2018-12-19T13:25:25.880Z,89.63
2018-12-19T13:27:57.620Z,69.07
2018-12-19T13:30:29.559Z,62.33
2018-12-19T13:33:01.281Z,63.33
2018-12-19T13:35:33.079Z,89.97
2018-12-19T13:38:09.460Z,87.57
2018-12-19T13:40:42.829Z,163.23
2018-12-19T13:43:14.545Z,133.93
2018-12-19T13:45:45.759Z,98.77
2018-12-19T13:48:17.539Z,177.27
2018-12-19T13:50:48.923Z,156.97
2018-12-19T13:53:20.429Z,143.57
2018-12-19T13:55:52.039Z,128.73
2018-12-19T13:58:23.949Z,147.33
2018-12-19T14:00:55.799Z,180.27
2018-12-19T14:03:28.659Z,137.10
2018-12-19T14:06:00.030Z,168.07
2018-12-19T14:08:31.752Z,133.03
2018-12-19T14:11:03.289Z,176.03
2018-12-19T14:13:34.890Z,200.47
2018-12-19T14:16:06.229Z,198.27
2018-12-19T14:18:39.630Z,456.30
2018-12-19T14:21:11.010Z,358.63
2018-12-19T14:23:42.821Z,336.90
2018-12-19T14:26:15.569Z,97.93
2018-12-19T14:28:47.500Z,50.60
2018-12-19T14:31:20.510Z,45.20
2018-12-19T14:33:53.429Z,43.03
2018-12-19T14:36:26.189Z,51.77
2018-12-19T14:38:57.659Z,48.00
2018-12-19T14:41:29.180Z,46.33
2018-12-19T14:44:00.889Z,49.67
2018-12-19T14:46:32.389Z,45.20
2018-12-19T14:49:04.079Z,51.13
2018-12-19T14:51:35.989Z,48.07
2018-12-19T14:54:07.619Z,41.63
2018-12-19T14:56:39.139Z,49.40
2018-12-19T14:59:10.931Z,39.50
2018-12-19T15:01:43.039Z,51.50
2018-12-19T15:04:14.623Z,40.93
2018-12-19T15:06:46.059Z,45.60
2018-12-19T15:09:17.779Z,50.23
2018-12-19T15:11:49.159Z,44.97
2018-12-19T15:14:20.779Z,54.67
2018-12-19T15:16:52.389Z,46.53
2018-12-19T15:19:24.079Z,49.20
2018-12-19T15:21:56.709Z,48.13
2018-12-19T15:24:30.069Z,53.93
2018-12-19T15:27:02.918Z,50.00
2018-12-19T15:29:34.469Z,43.90
2018-12-19T15:32:06.167Z,49.07
2018-12-19T15:34:38.169Z,46.30
2018-12-19T15:37:09.808Z,51.23
2018-12-19T15:39:41.559Z,44.37
2018-12-19T15:42:14.741Z,43.53
2018-12-19T15:44:46.208Z,41.80
2018-12-19T15:47:17.609Z,45.50
2018-12-19T15:49:51.048Z,50.87
2018-12-19T15:52:24.829Z,48.10
2018-12-19T15:54:57.259Z,46.50
2018-12-19T15:57:28.730Z,54.37
2018-12-19T16:00:00.552Z,47.67
2018-12-19T16:02:35.419Z,51.53
2018-12-19T16:05:07.209Z,51.13
2018-12-19T16:07:39.079Z,47.27
2018-12-19T16:10:12.319Z,49.70
2018-12-19T16:12:46.069Z,52.50
2018-12-19T16:15:17.469Z,55.77
2018-12-19T16:17:49.048Z,49.30
2018-12-19T16:20:20.629Z,53.87
2018-12-19T16:22:53.039Z,45.97
2018-12-19T16:25:26.729Z,57.27
2018-12-19T16:27:58.018Z,47.50
2018-12-19T16:30:29.889Z,56.70
2018-12-19T16:33:01.519Z,52.20
2018-12-19T16:35:32.948Z,45.40
2018-12-19T16:38:04.489Z,43.57
2018-12-19T16:40:36.520Z,50.83
2018-12-19T16:43:11.679Z,52.77
2018-12-19T16:45:43.328Z,54.20
2018-12-19T16:48:16.368Z,80.40
2018-12-19T16:50:48.240Z,75.40
2018-12-19T16:53:20.019Z,98.90
2018-12-19T16:55:51.639Z,108.70
2018-12-19T16:58:23.218Z,92.23
2018-12-19T17:00:56.589Z,58.73
2018-12-19T17:03:29.888Z,57.43
2018-12-19T17:06:01.378Z,60.13
2018-12-19T17:08:33.089Z,54.33
2018-12-19T17:11:04.789Z,64.70
2018-12-19T17:13:36.768Z,67.43
2018-12-19T17:16:08.458Z,62.17
2018-12-19T17:18:41.609Z,65.73
2018-12-19T17:21:13.289Z,71.93
2018-12-19T17:23:45.169Z,60.57
2018-12-19T17:26:17.241Z,70.47
2018-12-19T17:28:49.819Z,58.30
2018-12-19T17:31:21.659Z,65.83
2018-12-19T17:33:53.181Z,65.43
2018-12-19T17:36:24.589Z,66.23
2018-12-19T17:38:56.008Z,56.10
2018-12-19T17:41:28.231Z,74.23
2018-12-19T17:44:00.759Z,61.90
2018-12-19T17:46:33.059Z,51.27
2018-12-19T17:49:05.179Z,52.90
2018-12-19T17:51:37.208Z,59.53
2018-12-19T17:54:11.079Z,58.13
2018-12-19T17:56:43.684Z,52.97
2018-12-19T17:59:15.169Z,51.10
2018-12-19T18:01:46.799Z,56.63
2018-12-19T18:04:18.459Z,53.73
2018-12-19T18:06:50.348Z,54.07
2018-12-19T18:09:23.389Z,62.60
2018-12-19T18:11:55.388Z,47.83
2018-12-19T18:14:26.829Z,56.80
2018-12-19T18:16:58.097Z,55.77
2018-12-19T18:19:31.149Z,64.10
2018-12-19T18:22:02.879Z,55.03
2018-12-19T18:24:36.782Z,56.97
2018-12-19T18:27:10.090Z,58.87
2018-12-19T18:29:41.750Z,68.17
2018-12-19T18:32:13.410Z,53.67
2018-12-19T18:34:45.630Z,61.10
2018-12-19T18:37:17.309Z,66.60
2018-12-19T18:39:48.911Z,67.93
2018-12-19T18:42:20.771Z,52.10
2018-12-19T18:44:53.080Z,56.77
2018-12-19T18:47:26.050Z,51.47
2018-12-19T18:49:59.071Z,65.43
2018-12-19T18:52:30.610Z,66.13
2018-12-19T18:55:02.280Z,60.13
2018-12-19T18:57:33.852Z,47.60
2018-12-19T19:00:06.828Z,61.90
2018-12-19T19:02:38.480Z,71.40
2018-12-19T19:05:10.481Z,59.30
2018-12-19T19:07:43.120Z,54.13
2018-12-19T19:10:14.721Z,63.40
2018-12-19T19:12:48.800Z,58.57
2018-12-19T19:15:20.855Z,56.17
2018-12-19T19:17:52.455Z,62.73
2018-12-19T19:20:24.992Z,65.67
2018-12-19T19:22:56.811Z,62.00
2018-12-19T19:39:51.521Z,51.77
2018-12-19T19:42:24.671Z,57.80
2018-12-19T19:44:56.443Z,54.70
2018-12-19T19:47:29.662Z,58.27
2018-12-19T19:50:01.607Z,48.73
2018-12-19T19:52:33.459Z,54.20
2018-12-19T19:55:05.341Z,62.53
2018-12-19T19:57:37.471Z,61.57
2018-12-19T20:00:11.161Z,60.13
2018-12-19T20:02:42.691Z,58.63
2018-12-19T20:05:14.092Z,68.30
2018-12-19T20:07:45.601Z,67.57
2018-12-19T20:10:17.492Z,68.43
2018-12-19T20:12:50.501Z,77.07
2018-12-19T20:15:22.891Z,56.00
2018-12-19T20:17:55.710Z,63.47
2018-12-19T20:20:27.331Z,58.20
2018-12-19T20:22:58.790Z,72.77
2018-12-19T20:25:30.201Z,74.87
2018-12-19T20:28:04.451Z,68.90
2018-12-19T20:30:36.955Z,76.27
2018-12-19T20:33:08.431Z,72.43
2018-12-19T20:35:39.882Z,71.77
2018-12-19T20:38:11.431Z,71.40
2018-12-19T20:40:42.257Z,74.43
2018-12-19T20:43:13.399Z,77.87
2018-12-19T20:45:46.141Z,71.87
2018-12-19T20:48:17.363Z,59.63
2018-12-19T20:50:48.421Z,61.80
2018-12-19T20:53:19.291Z,54.00
2018-12-19T20:55:50.424Z,60.03
2018-12-19T20:58:22.094Z,53.67
2018-12-19T21:00:53.512Z,61.50
2018-12-19T21:03:24.526Z,58.00
2018-12-19T21:05:55.126Z,70.90
2018-12-19T21:08:26.872Z,57.90
2018-12-19T21:10:58.351Z,55.60
2018-12-19T21:13:29.432Z,56.50
2018-12-19T21:16:00.823Z,49.20
2018-12-19T21:18:36.971Z,60.17
2018-12-19T21:21:08.871Z,46.00
2018-12-19T21:23:40.443Z,46.50
2018-12-19T21:26:11.986Z,50.53
2018-12-19T21:28:42.820Z,45.13
2018-12-19T21:31:13.991Z,48.00
2018-12-19T21:33:44.991Z,48.77
2018-12-19T21:36:16.181Z,44.07
2018-12-19T21:38:47.191Z,41.97
2018-12-19T21:41:17.915Z,57.10
2018-12-19T21:43:53.689Z,52.47
2018-12-19T21:46:23.032Z,53.43
2018-12-19T21:48:54.087Z,44.67
2018-12-19T21:51:25.241Z,51.73
2018-12-19T21:53:57.871Z,41.53
2018-12-19T21:56:29.333Z,38.23
2018-12-19T21:59:00.857Z,43.50
2018-12-19T22:01:31.867Z,45.07
2018-12-19T22:04:03.002Z,51.97
2018-12-19T22:06:34.006Z,44.00
2018-12-19T22:09:06.785Z,41.87
2018-12-19T22:11:37.895Z,51.07
2018-12-19T22:14:09.311Z,42.87
2018-12-19T22:16:45.750Z,48.80
2018-12-19T22:19:16.715Z,48.67
2018-12-19T22:21:47.855Z,37.57
2018-12-19T22:24:18.705Z,43.70
2018-12-19T22:26:49.902Z,50.17
2018-12-19T22:29:20.830Z,42.77
2018-12-19T22:31:51.553Z,45.00
2018-12-19T22:34:22.170Z,50.70
2018-12-19T22:41:16.790Z,43.40
2018-12-19T22:43:50.183Z,50.50
2018-12-19T22:46:21.175Z,52.07
2018-12-19T22:48:51.987Z,56.47
2018-12-19T22:51:22.958Z,53.60
2018-12-19T22:53:53.611Z,44.43
2018-12-19T22:56:24.153Z,50.97
2018-12-19T22:58:55.649Z,50.10
2018-12-19T23:01:31.460Z,61.00
2018-12-19T23:04:07.727Z,55.40
2018-12-19T23:06:38.621Z,47.90
2018-12-19T23:09:09.733Z,40.70
2018-12-19T23:11:40.300Z,52.37
2018-12-19T23:14:15.551Z,52.10
2018-12-19T23:16:52.190Z,51.73
2018-12-19T23:19:28.834Z,51.53
2018-12-19T23:22:05.538Z,56.50
2018-12-19T23:24:41.547Z,46.50
2018-12-19T23:27:14.410Z,56.00
2018-12-19T23:29:46.672Z,63.93
2018-12-19T23:32:21.540Z,49.60
2018-12-19T23:34:52.449Z,56.73
2018-12-19T23:37:23.058Z,60.67
2018-12-19T23:39:54.250Z,51.53
2018-12-19T23:42:25.390Z,53.67
2018-12-19T23:44:56.531Z,49.03
2018-12-19T23:47:27.636Z,55.00
2018-12-19T23:49:58.753Z,53.57
2018-12-19T23:52:29.894Z,52.47
2018-12-19T23:55:01.349Z,61.43
2018-12-19T23:57:32.858Z,66.97
